Time;durP1;ratioP1;P1;durP2;ratioP2;P2;SDS_P1;SDS_P2;PMS_P1;PMS_P2;Temp;Humidity;BMP_temperature;BMP_pressure;BME280_temperature;BME280_humidity;BME280_pressure;Samples;Min_cycle;Max_cycle;Signal;HPM_P1;HPM_P2
2021/03/20 00:01:49;;;;;;;63.28;36.25;;;;;;;;;;5060318;28;20100;-61
2021/03/20 00:04:16;;;;;;;54.25;33.40;;;;;;;;;;5060359;28;20221;-61
2021/03/20 00:06:43;;;;;;;61.40;34.45;;;;;;;;;;5057394;28;20025;-61
2021/03/20 00:09:12;;;;;;;60.03;34.55;;;;;;;;;;5057098;28;20119;-61
2021/03/20 00:11:40;;;;;;;56.53;32.92;;;;;;;;;;5064482;28;20103;-61
2021/03/20 00:14:06;;;;;;;64.90;35.10;;;;;;;;;;5059515;28;20475;-60
2021/03/20 00:16:32;;;;;;;59.10;35.25;;;;;;;;;;5053735;28;20021;-61
2021/03/20 00:18:58;;;;;;;61.40;35.35;;;;;;;;;;5057247;28;20390;-60
2021/03/20 00:21:24;;;;;;;62.58;37.53;;;;;;;;;;5072827;28;20029;-61
2021/03/20 00:23:50;;;;;;;66.15;37.25;;;;;;;;;;5050264;28;20066;-65
2021/03/20 00:26:16;;;;;;;65.10;36.90;;;;;;;;;;5072761;28;20600;-61
2021/03/20 00:28:43;;;;;;;59.22;33.42;;;;;;;;;;5049515;28;20048;-66
2021/03/20 00:31:11;;;;;;;61.40;35.28;;;;;;;;;;5072628;28;20037;-63
2021/03/20 00:33:41;;;;;;;57.60;33.93;;;;;;;;;;5072936;28;20028;-63
2021/03/20 00:36:08;;;;;;;56.72;32.88;;;;;;;;;;5072594;28;20481;-64
2021/03/20 00:38:34;;;;;;;58.22;33.08;;;;;;;;;;5072697;28;20032;-66
2021/03/20 00:41:00;;;;;;;62.95;35.78;;;;;;;;;;5072495;28;20486;-65
2021/03/20 00:43:26;;;;;;;65.32;39.20;;;;;;;;;;5073004;28;20035;-61
2021/03/20 00:45:53;;;;;;;60.70;36.08;;;;;;;;;;5052729;28;20390;-61
2021/03/20 00:48:23;;;;;;;60.17;34.80;;;;;;;;;;5061506;28;20044;-61
2021/03/20 00:50:49;;;;;;;63.92;36.42;;;;;;;;;;5073585;28;20395;-62
2021/03/20 00:53:16;;;;;;;59.55;36.25;;;;;;;;;;5073217;28;20082;-61
2021/03/20 00:55:42;;;;;;;62.97;35.63;;;;;;;;;;5073584;28;20025;-61
2021/03/20 00:58:27;;;;;;;63.88;37.63;;;;;;;;;;5073983;28;20037;-62
2021/03/20 01:00:54;;;;;;;62.60;35.47;;;;;;;;;;5073614;28;20102;-62
2021/03/20 01:03:20;;;;;;;65.85;37.00;;;;;;;;;;5073836;28;20025;-61
2021/03/20 01:05:47;;;;;;;60.10;34.63;;;;;;;;;;5073434;28;20116;-67
2021/03/20 01:08:13;;;;;;;56.67;34.65;;;;;;;;;;5073421;28;20076;-63
2021/03/20 01:10:39;;;;;;;62.33;35.97;;;77.40;2227.20;;;;;;5072931;28;20032;-67
2021/03/20 01:13:06;;;;;;;56.80;33.47;;;77.30;2227.20;;;;;;5073039;28;20032;-64
2021/03/20 01:15:32;;;;;;;54.28;31.45;;;77.30;2227.20;;;;;;5071346;28;20066;-61
2021/03/20 01:17:57;;;;;;;55.47;31.95;;;77.30;2227.20;;;;;;5074003;28;20439;-62
2021/03/20 01:20:23;;;;;;;54.75;31.65;;;77.20;2227.20;;;;;;5076306;28;20029;-61
2021/03/20 01:22:49;;;;;;;44.63;29.08;;;77.20;2227.20;;;;;;5076315;28;20033;-62
2021/03/20 01:25:15;;;;;;;55.22;31.25;;;77.20;2227.20;;;;;;5058388;28;20094;-65
2021/03/20 01:27:41;;;;;;;51.75;29.48;;;77.20;2227.20;;;;;;5075920;28;20036;-62
2021/03/20 01:30:12;;;;;;;53.80;30.48;;;77.00;2227.20;;;;;;5057672;28;20032;-62
2021/03/20 01:32:38;;;;;;;47.92;29.83;;;77.00;2227.20;;;;;;5057668;28;20037;-66
2021/03/20 01:35:04;;;;;;;47.58;28.60;;;76.90;2227.20;;;;;;5076134;28;20477;-64
2021/03/20 01:37:30;;;;;;;45.88;27.73;;;77.00;2227.20;;;;;;5075777;28;20448;-62
2021/03/20 01:39:55;;;;;;;41.55;26.27;;;77.20;2227.20;;;;;;5075863;28;20136;-62
2021/03/20 01:42:21;;;;;;;47.25;27.45;;;77.20;2227.20;;;;;;5076539;28;20047;-61
2021/03/20 01:45:09;;;;;;;46.15;26.85;;;77.20;2227.20;;;;;;5075794;28;20485;-62
2021/03/20 01:47:43;;;;;;;52.90;29.58;;;77.20;2227.20;;;;;;5075636;28;20116;-65
2021/03/20 01:50:15;;;;;;;50.85;28.70;;;77.30;2227.20;;;;;;5075528;28;20028;-62
2021/03/20 01:52:43;;;;;;;44.70;26.88;;;77.20;2227.20;;;;;;5057420;28;20425;-61
2021/03/20 01:55:15;;;;;;;44.90;25.88;;;77.10;2227.20;;;;;;5075697;28;20017;-63
2021/03/20 01:57:46;;;;;;;45.53;27.73;;;77.10;2227.20;;;;;;5075661;28;20218;-61
2021/03/20 02:00:35;;;;;;;46.38;27.77;;;77.10;2227.20;;;;;;5061575;28;20032;-62
2021/03/20 02:03:05;;;;;;;47.10;27.88;;;77.00;2227.20;;;;;;5075931;28;20025;-63
2021/03/20 02:05:32;;;;;;;48.35;27.52;;;77.10;2227.20;;;;;;5075374;28;20017;-66
2021/03/20 02:08:03;;;;;;;44.53;27.95;;;77.10;2227.20;;;;;;5075531;28;20360;-63
2021/03/20 02:10:32;;;;;;;41.55;25.33;;;77.10;2227.20;;;;;;5076208;28;20032;-61
2021/03/20 02:13:09;;;;;;;42.63;25.08;;;77.20;2227.20;;;;;;5077788;28;20078;-64
2021/03/20 02:15:48;;;;;;;42.30;25.45;;;77.20;2227.20;;;;;;5059172;28;20378;-62
2021/03/20 02:18:17;;;;;;;43.13;25.55;;;77.20;2227.20;;;;;;5078107;28;20092;-62
2021/03/20 02:21:15;;;;;;;43.17;26.60;;;77.20;2227.20;;;;;;5077532;28;20028;-63
2021/03/20 02:24:02;;;;;;;45.60;26.70;;;77.30;2227.20;;;;;;5077176;28;20028;-63
2021/03/20 02:27:12;;;;;;;44.17;26.50;;;77.30;2227.20;;;;;;5076902;28;20075;-61
2021/03/20 02:30:02;;;;;;;42.42;24.33;;;77.30;2227.20;;;;;;4975360;28;20058;-66
2021/03/20 02:32:56;;;;;;;44.17;25.83;;;77.30;2227.20;;;;;;4976260;28;20066;-62
2021/03/20 02:35:42;;;;;;;40.15;23.45;;;77.30;2227.20;;;;;;4975020;28;20034;-61
2021/03/20 02:38:40;;;;;;;46.53;26.02;;;77.30;2227.20;;;;;;4974900;28;20022;-61
2021/03/20 02:41:24;;;;;;;42.60;24.30;;;77.30;2227.20;;;;;;4973103;28;20506;-62
2021/03/20 02:44:05;;;;;;;42.47;25.65;;;77.30;2227.20;;;;;;4973782;28;20033;-61
2021/03/20 02:46:45;;;;;;;42.13;25.10;;;77.30;2227.20;;;;;;4973682;28;20047;-61
2021/03/20 02:49:23;;;;;;;42.13;24.83;;;77.20;2227.20;;;;;;4973701;28;20025;-62
2021/03/20 02:51:59;;;;;;;43.80;26.30;;;77.20;2227.20;;;;;;4973820;28;20050;-62
2021/03/20 02:54:55;;;;;;;38.33;25.38;;;77.20;2227.20;;;;;;4973515;28;20197;-62
2021/03/20 02:57:46;;;;;;;39.65;24.73;;;77.30;2227.20;;;;;;4897609;29;20480;-60
2021/03/20 03:00:42;;;;;;;43.00;26.70;;;77.30;2227.20;;;;;;4897396;29;20049;-62
2021/03/20 03:03:10;;;;;;;42.03;25.73;;;77.30;2227.20;;;;;;4898185;29;20043;-59
2021/03/20 03:05:42;;;;;;;41.13;25.23;;;77.40;2227.20;;;;;;4919045;29;20078;-61
2021/03/20 03:08:10;;;;;;;47.17;26.05;;;77.30;2227.20;;;;;;4938833;28;20043;-66
2021/03/20 03:10:43;;;;;;;45.67;27.35;;;77.40;2227.20;;;;;;4954794;29;20063;-60
2021/03/20 03:13:16;;;;;;;41.67;25.48;;;77.40;2227.20;;;;;;4954565;29;20046;-62
2021/03/20 03:15:47;;;;;;;43.85;26.80;;;77.50;2227.20;;;;;;4954547;29;20039;-62
2021/03/20 03:18:29;;;;;;;45.50;27.92;;;77.50;2227.20;;;;;;4954850;29;20092;-63
2021/03/20 03:20:59;;;;;;;42.28;26.42;;;77.40;2227.20;;;;;;4954160;29;20041;-62
2021/03/20 03:23:30;;;;;;;44.40;25.63;;;77.50;2227.20;;;;;;4954663;29;20118;-60
2021/03/20 03:26:25;;;;;;;44.25;25.73;;;77.40;2227.20;;;;;;4954265;29;20035;-62
2021/03/20 03:28:58;;;;;;;39.60;24.42;;;77.50;2227.20;;;;;;4952518;28;20155;-60
2021/03/20 03:31:41;;;;;;;45.10;27.52;;;77.40;2227.20;;;;;;4953148;29;20039;-61
2021/03/20 03:34:27;;;;;;;45.47;26.05;;;77.30;2227.20;;;;;;5004990;28;20039;-60
2021/03/20 03:37:31;;;;;;;42.05;26.90;;;77.40;2227.20;;;;;;5055902;28;20016;-61
2021/03/20 03:40:02;;;;;;;50.75;27.92;;;77.40;2227.20;;;;;;5060625;28;20033;-64
2021/03/20 03:42:27;;;;;;;49.75;31.10;;;77.30;2227.20;;;;;;5073592;28;20025;-64
2021/03/20 03:44:54;;;;;;;49.97;30.08;;;77.30;2227.20;;;;;;5073840;28;20380;-63
2021/03/20 03:47:27;;;;;;;49.20;30.20;;;77.30;2227.20;;;;;;5073955;28;20043;-63
2021/03/20 03:49:54;;;;;;;52.38;31.75;;;77.30;2227.20;;;;;;5074128;28;20033;-62
2021/03/20 03:52:20;;;;;;;49.15;29.60;;;77.20;2227.20;;;;;;5074308;28;20147;-63
2021/03/20 03:54:46;;;;;;;52.83;31.95;;;77.20;2227.20;;;;;;5073752;28;20048;-64
2021/03/20 03:57:17;;;;;;;51.03;30.27;;;77.20;2227.20;;;;;;5074172;28;20033;-67
2021/03/20 04:00:04;;;;;;;55.35;31.33;;;77.20;2227.20;;;;;;5073862;28;20027;-60
2021/03/20 04:02:33;;;;;;;52.30;32.97;;;77.20;2227.20;;;;;;5073809;28;20047;-66
2021/03/20 04:05:12;;;;;;;51.70;31.15;;;77.20;2227.20;;;;;;5073510;28;20024;-60
2021/03/20 04:08:02;;;;;;;54.67;31.10;;;77.20;2227.20;;;;;;5073830;28;20153;-63
2021/03/20 04:10:58;;;;;;;53.40;31.23;;;77.30;2227.20;;;;;;5055745;28;20458;-65
2021/03/20 04:13:28;;;;;;;51.67;31.10;;;77.30;2227.20;;;;;;5072134;28;20471;-60
2021/03/20 04:16:12;;;;;;;51.25;31.77;;;77.10;2227.20;;;;;;5072816;28;20023;-61
2021/03/20 04:19:16;;;;;;;52.17;32.92;;;77.00;2227.20;;;;;;5073196;28;20054;-61
2021/03/20 04:21:54;;;;;;;55.10;33.33;;;76.80;2227.20;;;;;;5067714;28;20032;-60
2021/03/20 04:24:49;;;;;;;55.25;33.08;;;76.80;2227.20;;;;;;5072846;28;20044;-63
2021/03/20 04:27:26;;;;;;;55.85;33.83;;;76.80;2227.20;;;;;;5072633;28;20451;-60
2021/03/20 04:30:13;;;;;;;53.95;32.22;;;76.90;2227.20;;;;;;5072819;28;20137;-60
2021/03/20 04:33:00;;;;;;;53.70;32.00;;;76.90;2227.20;;;;;;5059363;28;20107;-59
2021/03/20 04:35:34;;;;;;;56.13;32.88;;;76.90;2227.20;;;;;;5072511;28;20029;-63
2021/03/20 04:38:01;;;;;;;55.45;34.15;;;76.80;2227.20;;;;;;5072956;28;20020;-60
2021/03/20 04:40:47;;;;;;;57.55;33.67;;;76.80;2227.20;;;;;;5072440;28;20043;-60
2021/03/20 04:43:21;;;;;;;53.22;31.48;;;76.90;2227.20;;;;;;5072748;28;20100;-61
2021/03/20 04:45:58;;;;;;;54.35;32.17;;;77.00;2227.20;;;;;;5072017;28;20028;-60
2021/03/20 04:48:37;;;;;;;56.45;33.80;;;77.10;2227.20;;;;;;5072929;28;20179;-59
2021/03/20 04:51:08;;;;;;;58.22;35.45;;;77.20;2227.20;;;;;;5072421;28;20518;-59
2021/03/20 04:53:35;;;;;;;55.30;33.60;;;77.20;2227.20;;;;;;5072543;28;20042;-61
2021/03/20 04:56:05;;;;;;;55.28;31.92;;;77.30;2227.20;;;;;;5072544;28;20122;-61
2021/03/20 04:58:51;;;;;;;56.78;33.75;;;77.40;2227.20;;;;;;5072970;28;20485;-59
2021/03/20 05:01:38;;;;;;;61.95;35.63;;;77.40;2227.20;;;;;;5071839;28;20025;-61
2021/03/20 05:04:17;;;;;;;56.83;34.38;;;77.40;2227.20;;;;;;5072080;28;20020;-61
2021/03/20 05:06:44;;;;;;;58.40;33.92;;;77.30;2227.20;;;;;;5071865;28;20030;-63
2021/03/20 05:09:21;;;;;;;61.85;36.25;;;77.00;2227.20;;;;;;5072348;28;20120;-59
2021/03/20 05:11:53;;;;;;;57.55;36.47;;;77.00;2227.20;;;;;;5065218;28;20106;-61
2021/03/20 05:14:37;;;;;;;60.72;35.63;;;76.90;2227.20;;;;;;5072666;28;20139;-61
2021/03/20 05:17:10;;;;;;;59.85;34.42;;;77.10;2227.20;;;;;;5072836;28;20028;-62
2021/03/20 05:19:36;;;;;;;54.40;32.75;;;77.20;2227.20;;;;;;5072990;28;20052;-60
2021/03/20 05:22:02;;;;;;;55.90;33.53;;;77.30;2227.20;;;;;;5073138;28;20064;-61
2021/03/20 05:24:32;;;;;;;57.78;34.00;;;77.40;2227.20;;;;;;5072889;28;20024;-60
2021/03/20 05:27:00;;;;;;;54.83;32.42;;;77.40;2227.20;;;;;;5072627;28;20055;-62
2021/03/20 05:29:27;;;;;;;61.95;36.17;;;77.40;2227.20;;;;;;5072836;28;20055;-60
2021/03/20 05:31:53;;;;;;;64.35;37.85;;;77.30;2227.20;;;;;;5072586;28;20032;-61
2021/03/20 05:34:25;;;;;;;53.33;33.65;;;77.30;2227.20;;;;;;5072448;28;20370;-59
2021/03/20 05:36:53;;;;;;;63.33;36.55;;;77.40;2227.20;;;;;;5072941;28;20103;-60
2021/03/20 05:39:19;;;;;;;62.47;36.60;;;77.50;2227.20;;;;;;5072616;28;20052;-61
2021/03/20 05:41:53;;;;;;;58.70;35.85;;;77.60;2227.20;;;;;;5071287;28;20421;-60
2021/03/20 05:44:35;;;;;;;63.15;36.15;;;77.60;2227.20;;;;;;5071842;28;20048;-59
2021/03/20 05:47:32;;;;;;;61.97;37.22;;;77.70;2227.20;;;;;;5070582;28;20028;-61
2021/03/20 05:50:03;;;;;;;57.50;36.75;;;102.60;2227.20;;;;;;5072111;28;20039;-62
2021/03/20 05:53:01;;;;;;;59.22;37.17;;;102.60;2227.20;;;;;;5071948;28;20036;-61
2021/03/20 05:55:34;;;;;;;62.10;38.40;;;102.60;2227.20;;;;;;5072026;28;20020;-62
2021/03/20 05:58:32;;;;;;;62.28;38.92;;;102.70;2227.20;;;;;;5072179;28;20479;-62
2021/03/20 06:01:02;;;;;;;65.43;40.30;;;102.60;2227.20;;;;;;4971123;28;20043;-62
2021/03/20 06:03:57;;;;;;;65.35;39.63;;;102.70;2227.20;;;;;;4972431;28;20540;-61
2021/03/20 06:06:22;;;;;;;68.88;41.13;;;102.70;2227.20;;;;;;4917622;29;20127;-61
2021/03/20 06:09:09;;;;;;;72.20;44.80;;;102.70;2227.20;;;;;;4917539;29;20127;-61
2021/03/20 06:12:28;;;;;;;71.63;42.95;;;102.70;2227.20;;;;;;4911833;29;20096;-64
2021/03/20 06:15:13;;;;;;;72.05;42.70;;;102.80;2227.20;;;;;;4880104;29;20510;-63
2021/03/20 06:18:09;;;;;;;70.20;43.20;;;102.90;2227.20;;;;;;4879727;29;20128;-62
2021/03/20 06:20:53;;;;;;;73.03;44.38;;;102.80;2227.20;;;;;;4879700;29;20049;-61
2021/03/20 06:23:46;;;;;;;73.80;43.88;;;102.80;2227.20;;;;;;4880206;29;20056;-60
2021/03/20 06:26:29;;;;;;;69.68;43.05;;;102.90;2227.20;;;;;;4879628;29;20077;-64
2021/03/20 06:29:16;;;;;;;73.57;43.97;;;102.90;2227.20;;;;;;4878412;29;20044;-61
2021/03/20 06:31:47;;;;;;;73.53;43.75;;;103.00;2227.20;;;;;;4879068;29;20041;-60
2021/03/20 06:34:18;;;;;;;74.15;44.88;;;103.00;2227.20;;;;;;4879261;29;20112;-61
2021/03/20 06:36:50;;;;;;;73.63;44.08;;;103.00;2227.20;;;;;;4881110;29;20396;-63
2021/03/20 06:39:19;;;;;;;75.88;44.92;;;103.10;2227.20;;;;;;4900128;29;20044;-60
2021/03/20 06:42:09;;;;;;;72.05;44.30;;;103.20;2227.20;;;;;;4900965;29;20030;-61
2021/03/20 06:44:46;;;;;;;76.40;45.63;;;103.20;2227.20;;;;;;4998757;28;20123;-61
2021/03/20 06:47:18;;;;;;;81.63;48.88;;;103.20;2227.20;;;;;;5074805;28;20033;-60
2021/03/20 06:49:58;;;;;;;76.15;46.42;;;103.20;2227.20;;;;;;5074553;28;20462;-62
2021/03/20 06:52:25;;;;;;;79.40;48.83;;;103.20;2227.20;;;;;;5056407;28;20086;-63
2021/03/20 06:55:01;;;;;;;81.20;47.10;;;128.10;2252.80;;;;;;5056340;28;20540;-62
2021/03/20 06:57:27;;;;;;;82.35;48.15;;;128.30;2252.80;;;;;;5074987;28;20021;-65
2021/03/20 06:59:56;;;;;;;81.18;49.28;;;128.30;2252.80;;;;;;5074484;28;20021;-62
2021/03/20 07:02:40;;;;;;;85.00;49.20;;;128.50;2252.80;;;;;;5074125;28;20090;-62
2021/03/20 07:05:09;;;;;;;79.70;49.33;;;128.60;2252.80;;;;;;5074344;28;20055;-62
2021/03/20 07:07:50;;;;;;;79.47;50.15;;;128.60;2252.80;;;;;;5074654;28;20142;-61
2021/03/20 07:10:24;;;;;;;82.22;51.13;;;128.80;2252.80;;;;;;5075447;28;20028;-61
2021/03/20 07:13:43;;;;;;;68.93;44.53;;;128.90;2252.80;;;;;;5074848;28;20029;-62
2021/03/20 07:16:10;;;;;;;68.75;43.70;;;153.60;2252.80;;;;;;5011638;28;20548;-63
2021/03/20 07:19:10;;;;;;;72.57;44.03;;;153.70;2252.80;;;;;;5013033;28;20083;-64
2021/03/20 07:21:41;;;;;;;73.03;46.05;;;153.90;2252.80;;;;;;5013059;28;20108;-64
2021/03/20 07:24:09;;;;;;;78.43;48.72;;;154.10;2252.80;;;;;;5012659;28;20070;-66
2021/03/20 07:26:57;;;;;;;72.10;47.88;;;154.20;2252.80;;;;;;5013058;28;20040;-60
2021/03/20 07:29:46;;;;;;;71.63;47.83;;;154.20;2252.80;;;;;;5012428;28;20041;-63
2021/03/20 07:32:16;;;;;;;72.03;47.15;;;154.20;2252.80;;;;;;5012623;28;20109;-62
2021/03/20 07:34:42;;;;;;;75.88;47.63;;;154.20;2252.80;;;;;;5012424;28;20022;-67
2021/03/20 07:37:21;;;;;;;71.70;44.70;;;154.20;2252.80;;;;;;5011804;28;20042;-64
2021/03/20 07:39:48;;;;;;;71.40;44.95;;;154.40;2252.80;;;;;;5011633;28;20049;-61
2021/03/20 07:42:34;;;;;;;68.05;44.50;;;179.20;2252.80;;;;;;5015024;28;20037;-62
2021/03/20 07:45:09;;;;;;;70.47;45.33;;;179.40;2252.80;;;;;;5011744;28;20073;-61
2021/03/20 07:47:41;;;;;;;79.80;49.25;;;179.60;2252.80;;;;;;5011787;28;20041;-61
2021/03/20 07:50:19;;;;;;;78.70;51.05;;;179.70;2252.80;;;;;;5046722;28;20181;-61
2021/03/20 07:53:06;;;;;;;86.83;53.47;;;179.90;2252.80;;;;;;5073430;28;20031;-64
2021/03/20 07:56:20;;;;;;;75.40;48.67;;;179.80;2252.80;;;;;;5011638;28;20555;-61
2021/03/20 07:58:58;;;;;;;69.35;46.00;;;180.00;2227.20;;;;;;4995322;28;20413;-61
2021/03/20 08:01:30;;;;;;;66.03;43.00;;;180.00;2227.20;;;;;;5011571;28;20062;-62
2021/03/20 08:04:07;;;;;;;63.40;40.40;;;180.10;2201.60;;;;;;5011558;28;20037;-60
2021/03/20 08:06:35;;;;;;;55.38;36.72;;;204.90;2150.40;;;;;;5011257;28;20492;-64
2021/03/20 08:09:17;;;;;;;62.33;38.35;;;180.00;2150.40;;;;;;5011416;28;20046;-62
2021/03/20 08:11:44;;;;;;;60.05;40.05;;;180.10;2176.00;;;;;;5011454;28;20496;-61
2021/03/20 08:14:15;;;;;;;61.42;41.03;;;204.80;2124.80;;;;;;5011429;28;20056;-63
2021/03/20 08:16:42;;;;;;;63.63;41.78;;;204.80;2022.40;;;;;;5010878;28;20026;-60
2021/03/20 08:19:12;;;;;;;69.88;45.67;;;180.00;2099.20;;;;;;4994785;28;20037;-62
2021/03/20 08:21:47;;;;;;;68.60;45.78;;;179.90;2124.80;;;;;;5011174;28;20120;-63
2021/03/20 08:24:31;;;;;;;85.65;53.67;;;180.00;2150.40;;;;;;5011220;28;20531;-61
2021/03/20 08:27:11;;;;;;;93.97;57.05;;;180.10;2150.40;;;;;;5009635;28;20116;-64
2021/03/20 08:29:58;;;;;;;89.90;59.63;;;180.10;2124.80;;;;;;5010506;28;20036;-61
2021/03/20 08:32:38;;;;;;;94.00;59.60;;;204.80;2124.80;;;;;;5025018;28;20044;-61
2021/03/20 08:35:14;;;;;;;109.47;71.13;;;204.80;2176.00;;;;;;5070122;28;20458;-64
2021/03/20 08:38:10;;;;;;;107.75;67.95;;;179.90;2201.60;;;;;;5072990;28;20024;-60
2021/03/20 08:41:07;;;;;;;115.80;73.18;;;180.00;2124.80;;;;;;5071437;28;20075;-67
2021/03/20 08:43:56;;;;;;;111.35;69.72;;;179.90;2176.00;;;;;;5073135;28;20013;-62
2021/03/20 08:46:59;;;;;;;115.03;71.60;;;179.80;2252.80;;;;;;5053167;28;20025;-62
2021/03/20 08:49:33;;;;;;;108.07;70.82;;;179.80;2201.60;;;;;;5071536;28;20075;-64
2021/03/20 08:52:20;;;;;;;113.20;68.38;;;179.90;2227.20;;;;;;5073443;28;20028;-62
2021/03/20 08:55:01;;;;;;;109.82;67.18;;;180.00;2176.00;;;;;;5073332;28;20025;-63
2021/03/20 08:57:26;;;;;;;99.50;59.85;;;179.80;2176.00;;;;;;5072868;28;20031;-63
2021/03/20 08:59:55;;;;;;;101.28;61.15;;;180.00;2099.20;;;;;;5073651;28;20103;-61
2021/03/20 09:02:39;;;;;;;103.60;62.35;;;179.70;2124.80;;;;;;5073076;28;20021;-61
2021/03/20 09:05:18;;;;;;;111.45;65.43;;;179.60;2150.40;;;;;;5073003;28;20078;-62
2021/03/20 09:07:58;;;;;;;98.68;63.40;;;179.80;2227.20;;;;;;5073370;28;20036;-62
2021/03/20 09:10:31;;;;;;;103.72;64.35;;;179.70;2201.60;;;;;;5072393;28;20017;-61
2021/03/20 09:13:29;;;;;;;91.03;59.15;;;179.80;2176.00;;;;;;5071738;28;20370;-61
2021/03/20 09:16:00;;;;;;;95.10;60.60;;;180.00;2150.40;;;;;;4971632;28;20030;-63
2021/03/20 09:18:27;;;;;;;92.30;57.45;;;204.80;2099.20;;;;;;4970818;28;20382;-61
2021/03/20 09:21:04;;;;;;;88.22;56.95;;;204.90;2073.60;;;;;;4971066;28;20121;-60
2021/03/20 09:23:32;;;;;;;106.57;60.83;;;204.80;2073.60;;;;;;4971225;28;20493;-60
2021/03/20 09:26:05;;;;;;;82.00;54.77;;;180.10;2099.20;;;;;;4971438;28;20049;-61
2021/03/20 09:28:52;;;;;;;99.45;60.17;;;205.00;2073.60;;;;;;4971383;28;20045;-61
2021/03/20 09:31:30;;;;;;;81.75;52.17;;;205.10;2022.40;;;;;;4971641;28;20058;-61
2021/03/20 09:33:58;;;;;;;74.88;50.22;;;205.10;2073.60;;;;;;4971950;28;20038;-61
2021/03/20 09:36:47;;;;;;;86.18;54.03;;;205.10;2048.00;;;;;;4972106;28;20043;-61
2021/03/20 09:39:41;;;;;;;84.28;51.45;;;205.20;1996.80;;;;;;4973675;28;20074;-62
2021/03/20 09:42:35;;;;;;;66.80;41.50;;;205.10;1971.20;;;;;;4975577;28;20536;-61
2021/03/20 09:45:24;;;;;;;63.85;40.40;;;205.30;1945.60;;;;;;4959270;28;20031;-61
2021/03/20 09:47:51;;;;;;;57.42;36.67;;;;;;;;;;4975776;28;20078;-60
2021/03/20 09:50:20;;;;;;;59.28;39.40;;;;;;;;;;4975138;28;20507;-60
2021/03/20 09:52:50;;;;;;;62.80;39.00;;;;;;;;;;5039335;28;20080;-60
2021/03/20 09:55:29;;;;;;;56.53;36.17;;;;;;;;;;5075358;28;20502;-61
2021/03/20 09:57:56;;;;;;;48.13;31.70;;;;;;;;;;5061758;28;20490;-61
2021/03/20 10:00:41;;;;;;;50.95;34.83;;;;;;;;;;5074426;28;20032;-61
2021/03/20 10:03:08;;;;;;;58.47;35.25;;;;;;;;;;5075726;28;20059;-61
2021/03/20 10:05:34;;;;;;;51.88;32.05;;;;;;;;;;5075492;28;20017;-62
2021/03/20 10:08:01;;;;;;;44.65;29.58;;;;;;;;;;5075578;28;20039;-63
2021/03/20 10:10:27;;;;;;;52.72;30.80;;;;;;;;;;5075295;28;20052;-59
2021/03/20 10:13:04;;;;;;;54.33;35.05;;;;;;;;;;5057564;28;20447;-62
2021/03/20 10:15:34;;;;;;;62.13;39.58;;;;;;;;;;5075293;28;20031;-72
2021/03/20 10:18:06;;;;;;;52.28;32.63;;;;;;;;;;5075263;28;20467;-64
2021/03/20 10:20:42;;;;;;;45.50;29.58;;;;;;;;;;5076022;28;20386;-65
2021/03/20 10:23:32;;;;;;;43.70;26.70;;;;;;;;;;5055416;28;20068;-62
2021/03/20 10:26:00;;;;;;;47.03;28.95;;;;;;;;;;5076306;28;20024;-65
2021/03/20 10:28:30;;;;;;;34.55;23.08;;;;;;;;;;5076806;28;20138;-65
2021/03/20 10:30:56;;;;;;;33.70;22.45;;;;;;;;;;5076403;28;20119;-62
2021/03/20 10:33:30;;;;;;;32.75;22.33;;;;;;;;;;5076503;28;20104;-63
2021/03/20 10:36:11;;;;;;;31.58;23.25;;;;;;;;;;5076340;28;20025;-62
2021/03/20 10:38:38;;;;;;;37.60;23.02;;;;;;;;;;5074879;28;20023;-64
2021/03/20 10:41:07;;;;;;;38.13;25.85;;;;;;;;;;5074651;28;20482;-62
2021/03/20 10:43:44;;;;;;;36.45;23.73;;;;;;;;;;5075198;28;20043;-62
2021/03/20 10:46:28;;;;;;;32.42;21.55;;;;;;;;;;5075026;28;20024;-62
2021/03/20 10:48:55;;;;;;;34.22;22.15;;;;;;;;;;5075441;28;20036;-63
2021/03/20 10:51:22;;;;;;;29.08;20.23;;;;;;;;;;5075437;28;20037;-62
2021/03/20 10:53:53;;;;;;;29.50;19.92;;;;;;;;;;5075890;28;20037;-62
2021/03/20 10:56:28;;;;;;;27.67;19.10;;;;;;;;;;5075654;28;20016;-63
2021/03/20 10:58:54;;;;;;;22.92;14.82;;;;;;;;;;5075733;28;20077;-62
2021/03/20 11:01:30;;;;;;;18.15;12.60;;;;;;;;;;5075023;28;20096;-62
2021/03/20 11:03:56;;;;;;;17.80;11.90;;;;;;;;;;5075111;28;20113;-61
2021/03/20 11:06:23;;;;;;;21.02;12.68;;;;;;;;;;5075026;28;20497;-66
2021/03/20 11:08:51;;;;;;;20.42;13.70;;;;;;;;;;5075268;28;20043;-62
2021/03/20 11:11:20;;;;;;;23.10;15.07;;;;;;;;;;5074859;28;20024;-62
2021/03/20 11:13:46;;;;;;;;;;;;;;;;;;5075571;28;20025;-62
2021/03/20 11:16:13;;;;;;;20.35;13.30;;;;;;;;;;5073518;28;19911;-62
2021/03/20 11:18:43;;;;;;;17.27;13.48;;;;;;;;;;5074490;28;20099;-62
2021/03/20 11:21:24;;;;;;;20.40;12.95;;;;;;;;;;5074203;28;20028;-62
2021/03/20 11:24:04;;;;;;;18.65;13.50;;;;;;;;;;5074110;28;20126;-62
2021/03/20 11:26:35;;;;;;;23.50;15.82;;;;;;;;;;5074436;28;20024;-62
2021/03/20 11:29:03;;;;;;;21.98;15.32;;;;;;;;;;5074384;28;20071;-62
2021/03/20 11:31:34;;;;;;;20.48;13.70;;;;;;;;;;5074162;28;20586;-62
2021/03/20 11:34:00;;;;;;;17.45;13.10;;;;;;;;;;5073656;28;20379;-62
2021/03/20 11:36:28;;;;;;;17.35;11.68;;;;;;;;;;5074232;28;20042;-62
2021/03/20 11:38:56;;;;;;;13.32;9.75;;;;;;;;;;5073884;28;20055;-62
2021/03/20 11:41:35;;;;;;;14.05;10.07;;;;;;;;;;5056304;28;20347;-62
2021/03/20 11:44:02;;;;;;;;;;;;;;;;;;5074266;28;20044;-62
2021/03/20 11:46:38;;;;;;;16.02;11.15;;;;;;;;;;5073461;28;19908;-62
2021/03/20 11:49:06;;;;;;;20.10;12.80;;;;;;;;;;5073684;28;20056;-62
2021/03/20 11:51:36;;;;;;;13.50;11.52;;;;;;;;;;5073499;28;20096;-62
2021/03/20 11:54:18;;;;;;;17.30;12.77;;;;;;;;;;5073434;28;20035;-62
2021/03/20 11:56:51;;;;;;;23.20;15.30;;;;;;;;;;5073750;28;20017;-62
2021/03/20 11:59:30;;;;;;;23.15;16.58;;;;;;;;;;5073532;28;20111;-61
2021/03/20 12:01:56;;;;;;;23.13;16.48;;;;;;;;;;5072805;28;20070;-62
2021/03/20 12:04:24;;;;;;;25.48;18.42;;;;;;;;;;5073560;28;20021;-62
2021/03/20 12:09:43;;;;;;;23.10;16.15;;;;;;;;;;5275138;22;20083;-61
2021/03/20 12:12:10;;;;;;;22.65;16.23;;;;;;;;;;5077352;28;20027;-62
2021/03/20 12:14:43;;;;;;;21.10;15.63;;;;;;;;;;5073245;28;20025;-62
2021/03/20 12:17:09;;;;;;;17.85;14.13;;;;;;;;;;5073865;28;20374;-62
2021/03/20 12:19:56;;;;;;;21.38;14.90;;;;;;;;;;5055654;28;20024;-62
2021/03/20 12:22:42;;;;;;;81.90;51.50;;;;;;;;;;4992213;28;20086;-62
2021/03/20 12:25:27;;;;;;;54.35;43.65;;;;;;;;;;4992383;28;20034;-61
2021/03/20 12:28:16;;;;;;;30.95;27.33;;;;;;;;;;4992101;28;20050;-61
2021/03/20 12:30:42;;;;;;;25.70;21.45;;;;;;;;;;4987314;28;20105;-65
2021/03/20 12:33:11;;;;;;;24.95;20.02;;;;;;;;;;4992420;28;20512;-61
2021/03/20 12:35:37;;;;;;;;;;;;;;;;;;4984527;28;20073;-61
2021/03/20 12:38:15;;;;;;;81.32;58.70;;;;;;;;;;4991950;28;19973;-61
2021/03/20 12:40:42;;;;;;;348.90;220.65;;;;;;;;;;4992274;28;20034;-62
2021/03/20 12:43:15;;;;;;;95.32;73.93;;;;;;;;;;4992184;28;20100;-61
2021/03/20 12:45:41;;;;;;;19.63;15.82;;;;;;;;;;4989775;28;20050;-62
2021/03/20 12:48:09;;;;;;;25.17;20.92;;;;;;;;;;4991296;28;20512;-61
2021/03/20 12:50:35;;;;;;;26.30;22.20;;;;;;;;;;4990989;28;20408;-61
2021/03/20 12:53:01;;;;;;;16.02;13.35;;;;;;;;;;4990952;28;20084;-61
2021/03/20 12:55:27;;;;;;;19.60;14.18;;;;;;;;;;4991243;28;20026;-61
2021/03/20 12:57:53;;;;;;;18.67;13.23;;;;;;;;;;5007360;28;20098;-61
2021/03/20 13:00:21;;;;;;;16.17;12.38;;;;;;;;;;5061723;28;20468;-62
2021/03/20 13:02:47;;;;;;;15.10;10.90;;;;;;;;;;5072830;28;20027;-61
2021/03/20 13:05:20;;;;;;;20.13;14.73;;;;;;;;;;5073037;28;20016;-61
2021/03/20 13:07:46;;;;;;;14.32;11.50;;;;;;;;;;5072523;28;20111;-62
2021/03/20 13:10:13;;;;;;;15.25;12.43;;;;;;;;;;5092954;28;20148;-62
2021/03/20 13:12:39;;;;;;;22.05;13.63;;;;;;;;;;5094412;28;20062;-62
2021/03/20 13:15:06;;;;;;;19.70;12.43;;;;;;;;;;5091537;28;20021;-62
2021/03/20 13:17:32;;;;;;;55.33;49.28;;;;;;;;;;5088204;28;20464;-61
2021/03/20 13:19:58;;;;;;;18.67;14.25;;;;;;;;;;5096722;28;20032;-61
2021/03/20 13:22:24;;;;;;;19.23;16.08;;;;;;;;;;5096745;28;20461;-62
2021/03/20 13:24:50;;;;;;;20.23;17.27;;;;;;;;;;5075435;28;20456;-61
2021/03/20 13:27:16;;;;;;;15.43;12.93;;;;;;;;;;5096916;28;20070;-62
2021/03/20 13:29:43;;;;;;;29.15;18.13;;;;;;;;;;5096649;28;20477;-62
2021/03/20 13:32:09;;;;;;;82.88;62.55;;;;;;;;;;5095898;28;20047;-62
2021/03/20 13:34:35;;;;;;;56.97;42.85;;;;;;;;;;5095881;28;20063;-62